createdAt,value
2023-01-08T00:00:29.124Z,8.50
2023-01-08T00:02:57.134Z,8.50
2023-01-08T00:05:26.390Z,8.60
2023-01-08T00:07:54.307Z,8.60
2023-01-08T00:10:22.207Z,8.70
2023-01-08T00:12:50.049Z,8.70
2023-01-08T00:15:18.057Z,10.40
2023-01-08T00:17:45.897Z,8.80
2023-01-08T00:20:13.769Z,8.90
2023-01-08T00:22:43.001Z,10.10
2023-01-08T00:25:11.108Z,8.90
2023-01-08T00:27:38.966Z,8.70
2023-01-08T00:30:07.748Z,8.90
2023-01-08T00:32:35.695Z,9.00
2023-01-08T00:35:03.601Z,8.90
2023-01-08T00:37:31.883Z,8.90
2023-01-08T00:40:01.095Z,9.00
2023-01-08T00:42:28.971Z,9.00
2023-01-08T00:44:56.814Z,9.00
2023-01-08T00:47:24.670Z,9.00
2023-01-08T00:49:52.535Z,9.00
2023-01-08T00:52:20.375Z,9.00
2023-01-08T00:54:48.217Z,9.00
2023-01-08T00:57:17.524Z,9.10
2023-01-08T00:59:45.541Z,9.10
2023-01-08T01:02:13.445Z,9.10
2023-01-08T01:04:41.353Z,9.10
2023-01-08T01:07:09.231Z,9.20
2023-01-08T01:09:37.087Z,9.20
2023-01-08T01:12:05.372Z,10.70
2023-01-08T01:14:34.616Z,9.10
2023-01-08T01:17:02.630Z,9.20
2023-01-08T01:19:30.523Z,9.20
2023-01-08T01:21:59.355Z,9.20
2023-01-08T01:24:27.779Z,9.10
2023-01-08T01:26:56.620Z,9.10
2023-01-08T01:29:24.836Z,9.10
2023-01-08T01:31:54.106Z,9.00
2023-01-08T01:34:21.997Z,9.00
2023-01-08T01:36:49.848Z,9.00
2023-01-08T01:39:19.819Z,9.10
2023-01-08T01:41:48.366Z,9.10
2023-01-08T01:44:41.004Z,8.80
2023-01-08T01:47:20.943Z,9.10
2023-01-08T01:49:56.131Z,9.10
2023-01-08T01:52:27.749Z,9.10
2023-01-08T01:54:56.028Z,9.10
2023-01-08T01:57:24.911Z,9.20
2023-01-08T01:59:54.664Z,9.20
2023-01-08T02:02:24.001Z,9.20
2023-01-08T02:04:52.246Z,9.20
2023-01-08T02:07:27.434Z,9.20
2023-01-08T02:10:01.814Z,9.30
2023-01-08T02:12:34.342Z,9.30
2023-01-08T02:15:12.404Z,9.40
2023-01-08T02:17:49.670Z,9.40
2023-01-08T02:20:23.512Z,9.50
2023-01-08T02:23:19.732Z,9.50
2023-01-08T02:26:18.162Z,9.50
2023-01-08T02:28:50.307Z,9.50
2023-01-08T02:31:19.831Z,9.50
2023-01-08T02:33:47.778Z,9.50
2023-01-08T02:36:25.066Z,9.50
2023-01-08T02:39:05.342Z,9.60
2023-01-08T02:41:43.797Z,9.60
2023-01-08T02:44:17.639Z,10.20
2023-01-08T02:46:46.139Z,9.50
2023-01-08T02:49:17.478Z,9.50
2023-01-08T02:51:50.734Z,9.60
2023-01-08T02:54:23.211Z,9.60
2023-01-08T02:57:02.385Z,9.60
2023-01-08T02:59:33.527Z,9.60
2023-01-08T03:02:03.247Z,9.60
2023-01-08T03:04:35.089Z,9.60
2023-01-08T03:07:03.659Z,9.60
2023-01-08T03:09:32.774Z,9.60
2023-01-08T03:12:06.947Z,9.60
2023-01-08T03:14:40.216Z,9.60
2023-01-08T03:17:14.816Z,9.60
2023-01-08T03:19:46.153Z,10.60
2023-01-08T03:22:17.361Z,9.70
2023-01-08T03:24:48.502Z,9.70
2023-01-08T03:27:21.651Z,9.70
2023-01-08T03:29:53.043Z,9.70
2023-01-08T03:32:22.903Z,9.70
2023-01-08T03:34:54.244Z,9.70
2023-01-08T03:37:26.299Z,9.70
2023-01-08T03:40:00.440Z,9.50
2023-01-08T03:42:32.158Z,9.60
2023-01-08T03:45:00.522Z,9.60
2023-01-08T03:47:30.539Z,9.60
2023-01-08T03:50:03.850Z,10.40
2023-01-08T03:52:33.257Z,10.70
2023-01-08T03:55:01.151Z,9.60
2023-01-08T03:57:30.379Z,9.60
2023-01-08T03:59:58.229Z,9.60
2023-01-08T04:02:26.259Z,9.60
2023-01-08T04:04:54.235Z,9.50
2023-01-08T04:07:22.475Z,9.50
2023-01-08T04:09:50.329Z,9.50
2023-01-08T04:12:18.231Z,9.50
2023-01-08T04:14:47.501Z,9.60
2023-01-08T04:17:15.411Z,9.60
2023-01-08T04:19:43.398Z,9.60
2023-01-08T04:22:11.893Z,9.60
2023-01-08T04:24:39.786Z,10.10
2023-01-08T04:27:07.767Z,9.60
2023-01-08T04:29:35.656Z,9.60
2023-01-08T04:32:05.129Z,9.60
2023-01-08T04:34:33.049Z,9.60
2023-01-08T04:37:01.851Z,9.60
2023-01-08T04:39:29.753Z,9.60
2023-01-08T04:41:57.672Z,9.70
2023-01-08T04:44:25.573Z,9.60
2023-01-08T04:46:53.480Z,9.60
2023-01-08T04:49:22.769Z,9.60
2023-01-08T04:51:50.707Z,9.60
2023-01-08T04:54:18.630Z,9.60
2023-01-08T04:56:46.515Z,9.70
2023-01-08T04:59:14.394Z,9.70
2023-01-08T05:01:42.375Z,10.90
2023-01-08T05:04:12.636Z,10.70
2023-01-08T05:06:41.910Z,9.60
2023-01-08T05:09:09.906Z,9.60
2023-01-08T05:11:37.799Z,9.60
2023-01-08T05:14:05.725Z,10.20
2023-01-08T05:16:33.628Z,9.60
2023-01-08T05:19:01.508Z,9.60
2023-01-08T05:21:29.372Z,9.60
2023-01-08T05:23:58.603Z,9.40
2023-01-08T05:26:26.514Z,9.60
2023-01-08T05:28:54.398Z,9.50
2023-01-08T05:31:22.421Z,9.50
2023-01-08T05:33:51.411Z,9.50
2023-01-08T05:36:20.030Z,9.40
2023-01-08T05:38:47.933Z,9.40
2023-01-08T05:41:17.160Z,10.10
2023-01-08T05:43:45.021Z,9.30
2023-01-08T05:46:13.148Z,9.20
2023-01-08T05:48:41.063Z,9.20
2023-01-08T05:51:08.964Z,9.10
2023-01-08T05:53:36.861Z,9.10
2023-01-08T05:56:09.170Z,9.10
2023-01-08T05:58:39.443Z,9.10
2023-01-08T06:01:09.147Z,9.10
2023-01-08T06:03:37.105Z,9.00
2023-01-08T06:06:06.732Z,9.80
2023-01-08T06:08:35.458Z,9.00
2023-01-08T06:11:06.283Z,9.00
2023-01-08T06:13:34.755Z,9.00
2023-01-08T06:16:04.208Z,9.00
2023-01-08T06:18:32.207Z,9.00
2023-01-08T06:21:00.152Z,9.00
2023-01-08T06:23:28.153Z,9.00
2023-01-08T06:25:57.381Z,9.00
2023-01-08T06:28:25.811Z,9.00
2023-01-08T06:30:54.186Z,8.90
2023-01-08T06:33:23.467Z,8.90
2023-01-08T06:35:51.367Z,8.90
2023-01-08T06:38:20.010Z,8.90
2023-01-08T06:40:48.151Z,8.90
2023-01-08T06:43:16.241Z,8.90
2023-01-08T06:45:44.129Z,8.80
2023-01-08T06:48:12.065Z,8.80
2023-01-08T06:50:41.302Z,8.80
2023-01-08T06:53:09.848Z,9.40
2023-01-08T06:55:38.620Z,8.80
2023-01-08T06:58:06.500Z,8.80
2023-01-08T07:00:34.420Z,10.80
2023-01-08T07:03:02.416Z,8.80
2023-01-08T07:05:30.444Z,8.80
2023-01-08T07:07:59.732Z,8.70
2023-01-08T07:10:27.956Z,8.70
2023-01-08T07:12:55.878Z,8.70
2023-01-08T07:15:23.732Z,8.70
2023-01-08T07:17:51.564Z,8.70
2023-01-08T07:20:19.637Z,8.70
2023-01-08T07:22:47.483Z,8.70
2023-01-08T07:25:16.887Z,8.60
2023-01-08T07:27:44.724Z,8.60
2023-01-08T07:30:28.353Z,8.60
2023-01-08T07:33:00.042Z,8.60
2023-01-08T07:35:28.023Z,8.60
2023-01-08T07:37:55.969Z,8.50
2023-01-08T07:40:25.319Z,8.50
2023-01-08T07:42:59.345Z,8.50
2023-01-08T07:45:27.730Z,8.50
2023-01-08T07:47:57.287Z,8.50
2023-01-08T07:50:25.264Z,8.60
2023-01-08T07:52:53.127Z,10.00
2023-01-08T07:55:20.988Z,8.60
2023-01-08T07:57:50.203Z,8.60
2023-01-08T08:00:18.497Z,8.60
2023-01-08T08:02:46.607Z,8.60
2023-01-08T08:05:14.892Z,8.60
2023-01-08T08:07:42.767Z,8.70
2023-01-08T08:10:11.905Z,8.70
2023-01-08T08:12:39.805Z,8.70
2023-01-08T08:15:10.684Z,8.70
2023-01-08T08:17:38.616Z,8.70
2023-01-08T08:20:07.607Z,8.70
2023-01-08T08:22:35.476Z,8.70
2023-01-08T08:25:03.364Z,10.60
2023-01-08T08:27:31.219Z,8.70
2023-01-08T08:29:59.105Z,8.70
2023-01-08T08:32:28.368Z,8.80
2023-01-08T08:34:56.936Z,8.80
2023-01-08T08:37:24.829Z,8.80
2023-01-08T08:39:53.558Z,8.60
2023-01-08T08:42:21.476Z,8.70
2023-01-08T08:44:49.347Z,8.70
2023-01-08T08:47:17.220Z,8.70
2023-01-08T08:49:46.505Z,8.60
2023-01-08T08:52:14.383Z,8.60
2023-01-08T08:54:42.455Z,8.30
2023-01-08T08:57:10.850Z,8.60
2023-01-08T08:59:39.173Z,8.70
2023-01-08T09:02:07.532Z,8.80
2023-01-08T09:04:35.960Z,8.90
2023-01-08T09:07:05.207Z,8.90
2023-01-08T09:09:33.088Z,10.20
2023-01-08T09:12:01.012Z,9.00
2023-01-08T09:14:28.887Z,8.80
2023-01-08T09:16:56.785Z,9.00
2023-01-08T09:19:24.701Z,10.10
2023-01-08T09:21:52.567Z,9.00
2023-01-08T09:24:21.854Z,9.00
2023-01-08T09:26:49.708Z,9.10
2023-01-08T09:29:17.625Z,9.20
2023-01-08T09:31:45.588Z,9.80
2023-01-08T09:34:13.565Z,9.30
2023-01-08T09:36:41.428Z,9.40
2023-01-08T09:39:10.300Z,9.40
2023-01-08T09:41:43.479Z,9.50
2023-01-08T09:44:19.275Z,10.20
2023-01-08T09:46:48.908Z,9.40
2023-01-08T09:49:22.376Z,9.30
2023-01-08T09:51:50.436Z,9.20
2023-01-08T09:54:19.262Z,9.10
2023-01-08T09:56:48.655Z,9.00
2023-01-08T09:59:19.203Z,8.90
2023-01-08T10:01:48.076Z,8.80
2023-01-08T10:04:17.893Z,10.50
2023-01-08T10:06:52.452Z,8.70
2023-01-08T10:09:25.312Z,8.70
2023-01-08T10:11:56.780Z,8.70
2023-01-08T10:14:28.048Z,8.70
2023-01-08T10:16:59.928Z,8.70
2023-01-08T10:19:27.863Z,8.70
2023-01-08T10:21:57.170Z,8.70
2023-01-08T10:24:35.744Z,8.70
2023-01-08T10:27:10.114Z,8.70
2023-01-08T10:29:39.745Z,8.70
2023-01-08T10:32:12.181Z,8.80
2023-01-08T10:34:48.236Z,8.80
2023-01-08T10:37:23.164Z,8.80
2023-01-08T10:39:51.521Z,8.80
2023-01-08T10:42:23.551Z,8.90
2023-01-08T10:45:00.387Z,8.90
2023-01-08T10:47:31.082Z,9.00
2023-01-08T10:50:00.372Z,9.00
2023-01-08T10:52:31.721Z,9.10
2023-01-08T10:55:12.335Z,9.10
2023-01-08T10:57:43.635Z,9.10
2023-01-08T11:00:27.774Z,9.20
2023-01-08T11:02:57.196Z,9.20
2023-01-08T11:05:33.714Z,9.30
2023-01-08T11:08:03.761Z,9.30
2023-01-08T11:10:31.862Z,10.50
2023-01-08T11:13:04.173Z,9.40
2023-01-08T11:15:35.134Z,9.40
2023-01-08T11:18:18.714Z,9.40
2023-01-08T11:20:47.405Z,9.50
2023-01-08T11:23:19.390Z,9.50
2023-01-08T11:25:53.343Z,10.50
2023-01-08T11:28:30.612Z,9.60
2023-01-08T11:31:09.110Z,10.70
2023-01-08T11:33:40.413Z,9.70
2023-01-08T11:36:15.011Z,9.80
2023-01-08T11:38:43.252Z,9.80
2023-01-08T11:41:23.249Z,9.90
2023-01-08T11:44:13.366Z,10.00
2023-01-08T11:46:48.795Z,10.00
2023-01-08T11:49:29.315Z,10.00
2023-01-08T11:52:18.375Z,10.10
2023-01-08T11:55:12.937Z,10.10
2023-01-08T11:57:55.810Z,10.00
2023-01-08T12:00:41.750Z,10.00
2023-01-08T12:03:21.905Z,10.00
2023-01-08T12:05:56.437Z,10.10
2023-01-08T12:08:36.147Z,10.10
2023-01-08T12:11:11.275Z,10.10
2023-01-08T12:13:53.055Z,10.00
2023-01-08T12:16:38.080Z,9.80
2023-01-08T12:19:21.194Z,10.00
2023-01-08T12:22:02.562Z,10.00
2023-01-08T12:24:55.453Z,10.00
2023-01-08T12:27:55.325Z,10.00
2023-01-08T12:30:31.479Z,10.00
2023-01-08T12:33:05.108Z,10.00
2023-01-08T12:35:39.278Z,10.00
2023-01-08T12:38:12.302Z,10.00
2023-01-08T12:40:43.237Z,10.00
2023-01-08T12:43:17.068Z,10.00
2023-01-08T12:45:47.298Z,10.00
2023-01-08T12:48:20.035Z,10.00
2023-01-08T12:51:00.655Z,10.00
2023-01-08T12:53:38.947Z,10.50
2023-01-08T12:56:12.241Z,10.00
2023-01-08T12:58:54.893Z,10.00
2023-01-08T13:01:30.819Z,9.90
2023-01-08T13:04:04.191Z,9.90
2023-01-08T13:06:32.354Z,9.90
2023-01-08T13:09:01.776Z,9.80
2023-01-08T13:11:31.931Z,9.80
2023-01-08T13:14:02.473Z,9.50
2023-01-08T13:16:31.765Z,9.70
2023-01-08T13:19:02.630Z,9.70
2023-01-08T13:21:36.750Z,9.80
2023-01-08T13:24:24.408Z,9.70
2023-01-08T13:26:54.254Z,9.60
2023-01-08T13:29:39.789Z,9.60
2023-01-08T13:32:24.592Z,9.60
2023-01-08T13:35:13.690Z,9.60
2023-01-08T13:37:41.620Z,9.60
2023-01-08T13:40:37.268Z,9.70
2023-01-08T13:43:12.508Z,9.70
2023-01-08T13:45:41.033Z,9.90
2023-01-08T13:48:22.999Z,9.60
2023-01-08T13:50:52.797Z,9.60
2023-01-08T13:53:21.466Z,9.60
2023-01-08T13:55:57.181Z,9.60
2023-01-08T13:58:29.656Z,10.10
2023-01-08T14:01:01.168Z,9.90
2023-01-08T14:03:30.695Z,10.10
2023-01-08T14:06:09.464Z,9.50
2023-01-08T14:08:38.457Z,9.50
2023-01-08T14:11:06.581Z,9.50
2023-01-08T14:13:35.662Z,9.50
2023-01-08T14:16:06.536Z,9.50
2023-01-08T14:18:35.012Z,9.50
2023-01-08T14:21:04.025Z,9.40
2023-01-08T14:23:37.118Z,9.40
2023-01-08T14:26:08.627Z,9.30
2023-01-08T14:28:36.825Z,9.30
2023-01-08T14:31:04.788Z,9.30
2023-01-08T14:33:35.770Z,9.30
2023-01-08T14:36:07.116Z,9.30
2023-01-08T14:38:36.378Z,9.30
2023-01-08T14:41:06.700Z,9.30
2023-01-08T14:43:36.188Z,9.30
2023-01-08T14:46:04.257Z,9.40
2023-01-08T14:48:42.594Z,9.40
2023-01-08T14:51:16.407Z,9.50
2023-01-08T14:53:47.172Z,10.70
2023-01-08T14:56:17.622Z,9.50
2023-01-08T14:58:46.961Z,10.30
2023-01-08T15:01:19.905Z,9.40
2023-01-08T15:03:49.537Z,9.30
2023-01-08T15:06:25.849Z,9.20
2023-01-08T15:08:55.264Z,9.10
2023-01-08T15:11:25.162Z,10.60
2023-01-08T15:13:54.571Z,9.00
2023-01-08T15:16:28.794Z,8.90
2023-01-08T15:19:05.177Z,8.50
2023-01-08T15:21:33.419Z,9.00
2023-01-08T15:24:04.413Z,8.90
2023-01-08T15:26:32.720Z,9.00
2023-01-08T15:29:02.609Z,9.00
2023-01-08T15:31:32.976Z,9.00
2023-01-08T15:34:01.519Z,9.10
2023-01-08T15:36:29.422Z,10.60
2023-01-08T15:38:57.317Z,9.00
2023-01-08T15:41:43.975Z,8.90
2023-01-08T15:44:13.511Z,8.70
2023-01-08T15:46:45.807Z,8.50
2023-01-08T15:49:13.887Z,8.30
2023-01-08T15:51:46.235Z,8.10
2023-01-08T15:54:15.311Z,8.00
2023-01-08T15:56:44.816Z,7.90
2023-01-08T15:59:12.842Z,7.80
2023-01-08T16:01:40.843Z,7.70
2023-01-08T16:04:08.896Z,7.70
2023-01-08T16:06:36.900Z,7.60
2023-01-08T16:09:04.956Z,8.50
2023-01-08T16:11:32.844Z,7.60
2023-01-08T16:14:02.068Z,7.60
2023-01-08T16:16:30.001Z,7.90
2023-01-08T16:18:59.743Z,7.60
2023-01-08T16:21:27.603Z,7.60
2023-01-08T16:23:55.548Z,7.60
2023-01-08T16:26:23.491Z,7.60
2023-01-08T16:28:51.367Z,7.50
2023-01-08T16:31:20.822Z,7.50
2023-01-08T16:33:48.741Z,7.40
2023-01-08T16:36:16.672Z,7.40
2023-01-08T16:38:44.602Z,7.40
2023-01-08T16:41:12.461Z,7.30
2023-01-08T16:43:42.960Z,7.20
2023-01-08T16:46:16.242Z,7.10
2023-01-08T16:48:46.721Z,7.00
2023-01-08T16:51:14.802Z,7.00
2023-01-08T16:53:42.994Z,6.90
2023-01-08T16:56:11.144Z,7.00
2023-01-08T16:58:39.096Z,6.90
2023-01-08T17:01:09.991Z,6.80
2023-01-08T17:03:38.572Z,6.80
2023-01-08T17:06:09.585Z,6.80
2023-01-08T17:08:40.072Z,6.70
2023-01-08T17:11:09.822Z,6.70
2023-01-08T17:13:37.759Z,6.60
2023-01-08T17:16:06.728Z,6.50
2023-01-08T17:18:35.051Z,6.40
2023-01-08T17:21:02.957Z,6.30
2023-01-08T17:23:32.707Z,6.50
2023-01-08T17:26:04.080Z,6.20
2023-01-08T17:28:34.907Z,6.30
2023-01-08T17:31:04.102Z,6.00
2023-01-08T17:33:32.220Z,5.90
2023-01-08T17:36:00.156Z,6.40
2023-01-08T17:38:28.453Z,6.40
2023-01-08T17:41:01.991Z,5.60
2023-01-08T17:43:34.163Z,6.60
2023-01-08T17:46:03.642Z,6.50
2023-01-08T17:48:31.778Z,5.40
2023-01-08T17:51:00.394Z,6.20
2023-01-08T17:53:30.078Z,5.50
2023-01-08T17:56:05.626Z,6.40
2023-01-08T17:58:33.553Z,5.70
2023-01-08T18:01:01.519Z,5.30
2023-01-08T18:03:29.538Z,6.10
2023-01-08T18:05:57.432Z,5.70
2023-01-08T18:08:25.604Z,6.50
2023-01-08T18:10:53.474Z,6.00
2023-01-08T18:13:22.701Z,6.50
2023-01-08T18:15:50.577Z,6.40
2023-01-08T18:18:18.464Z,5.80
2023-01-08T18:20:46.353Z,7.30
2023-01-08T18:23:14.211Z,6.60
2023-01-08T18:25:42.473Z,6.20
2023-01-08T18:28:10.384Z,5.90
2023-01-08T18:30:39.640Z,6.30
2023-01-08T18:33:07.546Z,5.80
2023-01-08T18:35:35.672Z,5.60
2023-01-08T18:38:03.589Z,7.90
2023-01-08T18:40:31.480Z,5.90
2023-01-08T18:42:59.452Z,6.00
2023-01-08T18:45:29.437Z,6.40
2023-01-08T18:47:58.732Z,5.70
2023-01-08T18:50:26.616Z,5.80
2023-01-08T18:52:54.593Z,5.40
2023-01-08T18:55:22.508Z,5.60
2023-01-08T18:57:51.157Z,6.40
2023-01-08T19:00:19.875Z,5.80
2023-01-08T19:02:47.822Z,5.60
2023-01-08T19:05:17.774Z,6.50
2023-01-08T19:07:45.668Z,5.50
2023-01-08T19:10:14.129Z,6.20
2023-01-08T19:12:42.063Z,5.60
2023-01-08T19:15:10.938Z,6.40
2023-01-08T19:17:38.916Z,5.50
2023-01-08T19:20:07.655Z,5.70
2023-01-08T19:22:36.938Z,5.30
2023-01-08T19:25:05.108Z,6.00
2023-01-08T19:27:35.427Z,5.30
2023-01-08T19:30:03.413Z,7.50
2023-01-08T19:32:31.303Z,6.30
2023-01-08T19:35:00.817Z,5.80
2023-01-08T19:37:28.857Z,5.50
2023-01-08T19:40:01.354Z,5.50
2023-01-08T19:42:46.795Z,6.30
2023-01-08T19:45:14.761Z,6.60
2023-01-08T19:47:43.161Z,5.60
2023-01-08T19:50:12.436Z,6.60
2023-01-08T19:52:40.335Z,5.50
2023-01-08T19:55:10.467Z,5.40
2023-01-08T19:57:38.424Z,5.40
2023-01-08T20:00:07.520Z,6.40
2023-01-08T20:02:35.454Z,5.30
2023-01-08T20:05:03.388Z,4.80
2023-01-08T20:07:31.267Z,5.30
2023-01-08T20:09:59.268Z,7.10
2023-01-08T20:12:31.586Z,5.70
2023-01-08T20:14:59.507Z,5.70
2023-01-08T20:17:28.445Z,5.00
2023-01-08T20:19:56.375Z,5.00
2023-01-08T20:22:24.935Z,6.00
2023-01-08T20:24:53.041Z,6.10
2023-01-08T20:27:21.013Z,6.40
2023-01-08T20:29:50.496Z,5.40
2023-01-08T20:32:20.425Z,5.20
2023-01-08T20:34:55.896Z,5.10
2023-01-08T20:37:23.856Z,5.20
2023-01-08T20:39:52.201Z,5.20
2023-01-08T20:42:33.097Z,5.80
2023-01-08T20:45:03.075Z,4.90
2023-01-08T20:47:31.440Z,5.00
2023-01-08T20:49:59.505Z,5.20
2023-01-08T20:52:30.171Z,5.30
2023-01-08T20:54:58.176Z,4.80
2023-01-08T20:57:28.102Z,5.60
2023-01-08T20:59:56.118Z,4.60
2023-01-08T21:02:25.423Z,6.00
2023-01-08T21:04:54.942Z,6.20
2023-01-08T21:07:22.918Z,5.10
2023-01-08T21:09:50.874Z,4.20
2023-01-08T21:12:18.787Z,4.30
2023-01-08T21:14:46.687Z,5.00
2023-01-08T21:17:14.596Z,4.90
2023-01-08T21:19:44.014Z,4.70
2023-01-08T21:22:11.954Z,5.00
2023-01-08T21:24:41.066Z,4.50
2023-01-08T21:27:08.980Z,4.70
2023-01-08T21:29:36.885Z,6.00
2023-01-08T21:32:04.952Z,5.60
2023-01-08T21:34:32.844Z,4.40
2023-01-08T21:37:04.191Z,4.50
2023-01-08T21:39:33.147Z,5.50
2023-01-08T21:42:18.654Z,6.00
2023-01-08T21:45:04.079Z,4.60
2023-01-08T21:47:31.980Z,4.80
2023-01-08T21:49:59.873Z,5.10
2023-01-08T21:52:46.402Z,4.70
2023-01-08T21:55:16.785Z,6.60
2023-01-08T21:57:45.055Z,4.50
2023-01-08T22:00:15.072Z,4.80
2023-01-08T22:02:43.388Z,4.60
2023-01-08T22:05:11.464Z,5.40
2023-01-08T22:07:40.742Z,4.50
2023-01-08T22:10:09.778Z,5.40
2023-01-08T22:12:37.668Z,4.40
2023-01-08T22:15:06.479Z,4.00
2023-01-08T22:17:34.430Z,4.40
2023-01-08T22:20:02.635Z,6.00
2023-01-08T22:22:30.524Z,4.30
2023-01-08T22:24:59.783Z,4.20
2023-01-08T22:27:27.658Z,4.10
2023-01-08T22:29:55.556Z,5.50
2023-01-08T22:32:23.460Z,4.50
2023-01-08T22:34:51.508Z,4.80
2023-01-08T22:37:21.634Z,6.30
2023-01-08T22:39:49.715Z,5.70
2023-01-08T22:42:19.007Z,5.90
2023-01-08T22:44:46.902Z,5.50
2023-01-08T22:47:14.803Z,5.10
2023-01-08T22:49:42.701Z,5.70
2023-01-08T22:52:10.773Z,5.00
2023-01-08T22:54:39.239Z,5.70
2023-01-08T22:57:07.793Z,4.80
2023-01-08T22:59:37.263Z,6.90
2023-01-08T23:02:05.169Z,5.30
2023-01-08T23:04:33.053Z,5.20
2023-01-08T23:07:00.965Z,6.50
2023-01-08T23:09:28.846Z,5.50
2023-01-08T23:11:56.795Z,5.50
2023-01-08T23:14:24.741Z,6.20
2023-01-08T23:16:54.001Z,5.60
2023-01-08T23:19:21.890Z,5.70
2023-01-08T23:21:49.791Z,6.20
2023-01-08T23:24:17.708Z,6.00
2023-01-08T23:26:45.791Z,6.00
2023-01-08T23:29:13.838Z,6.20
2023-01-08T23:31:44.002Z,6.30
2023-01-08T23:34:13.342Z,7.40
2023-01-08T23:36:42.892Z,6.20
2023-01-08T23:39:11.768Z,6.80
2023-01-08T23:41:39.815Z,6.60
2023-01-08T23:44:09.703Z,6.70
2023-01-08T23:46:38.361Z,6.70
2023-01-08T23:49:07.935Z,6.70
2023-01-08T23:51:38.603Z,6.70
2023-01-08T23:54:06.564Z,7.50
2023-01-08T23:56:34.441Z,6.80
2023-01-08T23:59:02.565Z,6.70
